Time;durP1;ratioP1;P1;durP2;ratioP2;P2;SDS_P1;SDS_P2;PMS_P1;PMS_P2;Temp;Humidity;BMP_temperature;BMP_pressure;BME280_temperature;BME280_humidity;BME280_pressure;Samples;Min_cycle;Max_cycle;Signal;HPM_P1;HPM_P2
2023/05/19 00:00:57;;;;;;;15.82;9.18;;;11.10;99.90;;;;;;5112986;28;20068;-69
2023/05/19 00:03:23;;;;;;;14.77;8.70;;;11.10;99.90;;;;;;5112844;28;20024;-69
2023/05/19 00:05:52;;;;;;;13.63;9.38;;;11.10;99.90;;;;;;5113328;28;20020;-69
2023/05/19 00:08:18;;;;;;;14.30;8.73;;;11.10;99.90;;;;;;5112761;28;20023;-69
2023/05/19 00:10:44;;;;;;;15.50;9.40;;;11.10;99.90;;;;;;5113208;28;20028;-69
2023/05/19 00:13:10;;;;;;;16.63;9.45;;;11.10;99.90;;;;;;5112615;28;20031;-69
2023/05/19 00:15:36;;;;;;;14.23;9.73;;;11.10;99.90;;;;;;5113190;28;20176;-69
2023/05/19 00:18:02;;;;;;;17.55;9.60;;;11.10;99.90;;;;;;5112394;28;20400;-69
2023/05/19 00:20:27;;;;;;;19.63;9.55;;;11.10;99.90;;;;;;5112667;28;20098;-70
2023/05/19 00:22:53;;;;;;;14.35;9.55;;;11.10;99.90;;;;;;5112950;28;20034;-69
2023/05/19 00:25:19;;;;;;;16.98;9.40;;;11.10;99.90;;;;;;5112328;28;20024;-69
2023/05/19 00:27:44;;;;;;;16.00;9.93;;;11.10;99.90;;;;;;5111435;28;20052;-69
2023/05/19 00:30:10;;;;;;;13.05;10.00;;;11.10;99.90;;;;;;5113084;28;20023;-70
2023/05/19 00:32:36;;;;;;;14.95;10.63;;;11.10;99.90;;;;;;5115576;28;20035;-69
2023/05/19 00:35:02;;;;;;;16.45;9.88;;;11.10;99.90;;;;;;5116851;28;20031;-75
2023/05/19 00:37:27;;;;;;;14.95;9.98;;;11.10;99.90;;;;;;5117023;28;20035;-70
2023/05/19 00:39:53;;;;;;;14.80;10.35;;;11.10;99.90;;;;;;5116879;28;20020;-69
2023/05/19 00:42:20;;;;;;;12.63;9.73;;;11.10;99.90;;;;;;5116261;28;20027;-70
2023/05/19 00:44:45;;;;;;;16.30;9.98;;;11.00;99.90;;;;;;5116650;28;20079;-70
2023/05/19 00:47:11;;;;;;;13.35;9.30;;;11.00;99.90;;;;;;5116517;28;20078;-70
2023/05/19 00:49:37;;;;;;;16.52;10.20;;;11.00;99.90;;;;;;5116431;28;20540;-69
2023/05/19 00:52:05;;;;;;;13.48;10.48;;;11.00;99.90;;;;;;5116645;28;20111;-69
2023/05/19 00:54:31;;;;;;;15.65;11.02;;;11.00;99.90;;;;;;5116331;28;20028;-70
2023/05/19 00:56:58;;;;;;;16.95;11.10;;;11.00;99.90;;;;;;5116609;28;20106;-69
2023/05/19 00:59:23;;;;;;;13.02;10.15;;;10.90;99.90;;;;;;5115299;28;20504;-70
2023/05/19 01:01:49;;;;;;;17.77;10.35;;;10.90;99.90;;;;;;5115200;28;20126;-70
2023/05/19 01:04:18;;;;;;;17.67;10.88;;;10.90;99.90;;;;;;5115631;28;20100;-70
2023/05/19 01:06:53;;;;;;;16.92;12.13;;;10.90;99.90;;;;;;5116460;27;20023;-69
2023/05/19 01:09:21;;;;;;;18.30;11.43;;;10.90;99.90;;;;;;5115762;27;20039;-70
2023/05/19 01:11:47;;;;;;;15.60;11.18;;;10.90;99.90;;;;;;5116081;28;20145;-69
2023/05/19 01:14:13;;;;;;;17.42;12.38;;;10.80;99.90;;;;;;5115719;28;20151;-70
2023/05/19 01:16:49;;;;;;;19.85;11.95;;;10.80;99.90;;;;;;5116327;28;20080;-70
2023/05/19 01:19:15;;;;;;;16.25;11.68;;;10.80;99.90;;;;;;5115453;28;20035;-69
2023/05/19 01:22:02;;;;;;;16.52;11.57;;;10.80;99.90;;;;;;5116067;28;20039;-69
2023/05/19 01:24:49;;;;;;;18.60;11.80;;;10.80;99.90;;;;;;5115605;28;20024;-69
2023/05/19 01:27:36;;;;;;;18.90;11.75;;;10.80;99.90;;;;;;5115595;28;20150;-70
2023/05/19 01:30:24;;;;;;;16.23;11.57;;;10.80;99.90;;;;;;5116008;28;20051;-70
2023/05/19 01:32:52;;;;;;;19.10;11.80;;;10.80;99.90;;;;;;5115829;28;20388;-69
2023/05/19 01:35:18;;;;;;;15.27;11.18;;;10.80;99.90;;;;;;5115336;28;20031;-70
2023/05/19 01:37:46;;;;;;;16.13;12.50;;;10.70;99.90;;;;;;5115627;28;20055;-69
2023/05/19 01:40:12;;;;;;;17.25;13.30;;;10.70;99.90;;;;;;5114014;28;20039;-70
2023/05/19 01:42:39;;;;;;;17.95;11.95;;;10.70;99.90;;;;;;5114772;28;20031;-70
2023/05/19 01:45:09;;;;;;;19.80;12.57;;;10.60;99.90;;;;;;5115463;28;20055;-69
2023/05/19 01:47:38;;;;;;;23.42;12.98;;;10.70;99.90;;;;;;5115633;28;20460;-69
2023/05/19 01:50:05;;;;;;;19.73;13.13;;;10.60;99.90;;;;;;5115770;28;20016;-70
2023/05/19 01:52:31;;;;;;;20.67;12.88;;;10.60;99.90;;;;;;5114464;28;20037;-70
2023/05/19 01:54:57;;;;;;;18.13;12.85;;;10.60;99.90;;;;;;5115385;28;20028;-69
2023/05/19 01:57:58;;;;;;;21.00;13.18;;;10.60;99.90;;;;;;5114872;28;20380;-71
2023/05/19 02:00:55;;;;;;;18.33;13.15;;;10.60;99.90;;;;;;5115575;27;20039;-70
2023/05/19 02:03:41;;;;;;;21.65;13.82;;;10.50;99.90;;;;;;5114968;28;20146;-70
2023/05/19 02:06:22;;;;;;;19.65;13.23;;;10.50;99.90;;;;;;5115292;28;20110;-70
2023/05/19 02:09:10;;;;;;;20.45;13.88;;;10.50;99.90;;;;;;5115228;28;20034;-69
2023/05/19 02:11:46;;;;;;;22.42;14.48;;;10.50;99.90;;;;;;5114991;28;20426;-69
2023/05/19 02:14:43;;;;;;;19.45;13.15;;;10.50;99.90;;;;;;5113597;28;20027;-70
2023/05/19 02:17:13;;;;;;;20.90;13.88;;;10.50;99.90;;;;;;5115328;28;20026;-69
2023/05/19 02:19:39;;;;;;;22.30;14.77;;;10.50;99.90;;;;;;5114848;28;20027;-71
2023/05/19 02:22:05;;;;;;;19.20;14.23;;;10.50;99.90;;;;;;5112472;28;20027;-70
2023/05/19 02:24:30;;;;;;;20.17;15.23;;;10.50;99.90;;;;;;5114438;27;20479;-70
2023/05/19 02:26:56;;;;;;;21.58;14.77;;;10.40;99.90;;;;;;5114751;28;20027;-69
2023/05/19 02:29:22;;;;;;;22.90;14.85;;;10.40;99.90;;;;;;5114270;28;20030;-70
2023/05/19 02:31:47;;;;;;;20.05;14.18;;;10.40;99.90;;;;;;5114554;28;20028;-70
2023/05/19 02:34:13;;;;;;;20.98;14.50;;;10.40;99.90;;;;;;5114239;28;20155;-69
2023/05/19 02:36:44;;;;;;;21.10;14.25;;;10.40;99.90;;;;;;5114597;28;20380;-69
2023/05/19 02:39:11;;;;;;;21.50;14.27;;;10.40;99.90;;;;;;5114579;27;20024;-70
2023/05/19 02:41:37;;;;;;;23.25;14.35;;;10.40;99.90;;;;;;5114344;28;20031;-70
2023/05/19 02:44:03;;;;;;;21.77;14.82;;;10.40;99.90;;;;;;5114259;28;20474;-70
2023/05/19 02:46:29;;;;;;;17.48;13.75;;;10.40;99.90;;;;;;5113572;28;20067;-70
2023/05/19 02:48:55;;;;;;;19.10;14.30;;;10.40;99.90;;;;;;5114247;28;20059;-70
2023/05/19 02:51:20;;;;;;;21.23;14.63;;;10.40;99.90;;;;;;5113777;28;20027;-70
2023/05/19 02:53:46;;;;;;;22.52;13.93;;;10.40;99.90;;;;;;5113482;28;20028;-70
2023/05/19 02:56:11;;;;;;;19.83;14.20;;;10.30;99.90;;;;;;5113965;28;20441;-69
2023/05/19 02:58:38;;;;;;;23.65;14.40;;;10.30;99.90;;;;;;5114182;28;20026;-69
2023/05/19 03:01:03;;;;;;;21.20;15.20;;;10.30;99.90;;;;;;5114021;28;20029;-69
2023/05/19 03:03:29;;;;;;;21.67;13.85;;;10.30;99.90;;;;;;5113536;28;20098;-69
2023/05/19 03:05:55;;;;;;;20.38;13.57;;;10.30;99.90;;;;;;5114138;28;20032;-70
2023/05/19 03:08:21;;;;;;;19.42;13.50;;;10.30;99.90;;;;;;5113226;28;20072;-70
2023/05/19 03:10:46;;;;;;;19.15;12.88;;;10.30;99.90;;;;;;5113499;28;20028;-69
2023/05/19 03:13:12;;;;;;;19.13;13.38;;;10.30;99.90;;;;;;5113440;28;20027;-69
2023/05/19 03:15:38;;;;;;;17.98;12.20;;;10.30;99.90;;;;;;5113253;28;20038;-69
2023/05/19 03:18:04;;;;;;;17.35;12.10;;;10.30;99.90;;;;;;5113784;28;20023;-69
2023/05/19 03:20:29;;;;;;;18.58;12.30;;;10.30;99.90;;;;;;5113600;28;20490;-69
2023/05/19 03:22:57;;;;;;;18.10;11.85;;;10.30;99.90;;;;;;5113597;28;20038;-69
2023/05/19 03:25:22;;;;;;;18.15;11.52;;;10.30;99.90;;;;;;5113128;28;20028;-70
2023/05/19 03:27:48;;;;;;;16.05;12.18;;;10.30;99.90;;;;;;5113242;28;20340;-69
2023/05/19 03:30:14;;;;;;;16.27;11.18;;;10.30;99.90;;;;;;5113617;28;20031;-69
2023/05/19 03:32:40;;;;;;;18.15;11.25;;;10.30;99.90;;;;;;5113347;28;20031;-70
2023/05/19 03:35:06;;;;;;;17.02;10.93;;;10.30;99.90;;;;;;5113390;28;20031;-70
2023/05/19 03:37:32;;;;;;;15.20;9.52;;;10.30;99.90;;;;;;5112734;28;20023;-70
2023/05/19 03:40:01;;;;;;;15.90;9.15;;;10.30;99.90;;;;;;5113096;28;20019;-70
2023/05/19 03:42:26;;;;;;;14.32;9.55;;;10.30;99.90;;;;;;5112755;28;20444;-70
2023/05/19 03:44:52;;;;;;;16.00;10.00;;;10.30;99.90;;;;;;5113246;28;20071;-69
2023/05/19 03:47:17;;;;;;;16.88;9.93;;;10.30;99.90;;;;;;5112817;28;20099;-69
2023/05/19 03:49:43;;;;;;;17.60;10.55;;;10.40;99.90;;;;;;5112612;28;20080;-69
2023/05/19 03:52:09;;;;;;;11.05;8.45;;;10.40;99.90;;;;;;5113050;28;20034;-69
2023/05/19 03:54:35;;;;;;;15.70;8.32;;;10.40;99.90;;;;;;5112724;28;20057;-69
2023/05/19 03:57:01;;;;;;;14.90;8.90;;;10.40;99.90;;;;;;5113112;28;20460;-70
2023/05/19 03:59:27;;;;;;;13.60;8.68;;;10.40;99.90;;;;;;5112670;28;20032;-69
2023/05/19 04:01:53;;;;;;;13.27;7.80;;;10.40;99.90;;;;;;5112698;28;20460;-69
2023/05/19 04:04:18;;;;;;;11.82;8.13;;;10.40;99.90;;;;;;5112602;28;20026;-70
2023/05/19 04:06:44;;;;;;;10.38;8.10;;;10.40;99.90;;;;;;5112362;28;20024;-70
2023/05/19 04:09:14;;;;;;;8.68;6.55;;;10.40;99.90;;;;;;5112981;28;20059;-69
2023/05/19 04:11:40;;;;;;;12.60;7.20;;;10.40;99.90;;;;;;5112495;28;20031;-70
2023/05/19 04:14:06;;;;;;;10.25;7.18;;;10.40;99.90;;;;;;5113099;28;20032;-69
2023/05/19 04:16:32;;;;;;;12.10;7.38;;;10.50;99.90;;;;;;5112649;28;20294;-69
2023/05/19 04:18:58;;;;;;;10.68;7.45;;;10.50;99.90;;;;;;5112922;28;20460;-69
2023/05/19 04:21:24;;;;;;;9.95;6.63;;;10.50;99.90;;;;;;5111193;28;20035;-69
2023/05/19 04:23:49;;;;;;;11.20;7.32;;;10.50;99.90;;;;;;5112757;28;20030;-69
2023/05/19 04:26:16;;;;;;;9.57;6.63;;;10.50;99.90;;;;;;5112885;28;20031;-69
2023/05/19 04:28:43;;;;;;;9.40;6.32;;;10.50;99.90;;;;;;5112405;28;20020;-69
2023/05/19 04:31:13;;;;;;;11.48;6.25;;;10.50;99.90;;;;;;5111920;28;20031;-69
2023/05/19 04:33:39;;;;;;;9.55;6.43;;;10.50;99.90;;;;;;5111894;28;20058;-70
2023/05/19 04:36:09;;;;;;;9.25;5.78;;;10.60;99.90;;;;;;5112801;28;20031;-69
2023/05/19 04:38:44;;;;;;;8.90;6.00;;;10.60;99.90;;;;;;5112694;28;20552;-69
2023/05/19 04:41:10;;;;;;;9.60;5.50;;;10.60;99.90;;;;;;5113913;28;20116;-70
2023/05/19 04:43:40;;;;;;;9.27;5.75;;;10.60;99.90;;;;;;5112338;28;20375;-69
2023/05/19 04:46:06;;;;;;;8.75;4.95;;;10.70;99.90;;;;;;5112381;28;20055;-69
2023/05/19 04:48:32;;;;;;;11.35;4.97;;;10.70;99.90;;;;;;5112721;28;20364;-69
2023/05/19 04:51:00;;;;;;;10.52;5.38;;;10.80;99.90;;;;;;5112809;28;20027;-69
2023/05/19 04:53:27;;;;;;;9.63;5.45;;;11.00;99.90;;;;;;5112210;28;20031;-70
2023/05/19 04:55:53;;;;;;;10.70;5.13;;;11.10;99.90;;;;;;5112569;28;20043;-70
2023/05/19 04:58:18;;;;;;;7.32;5.80;;;11.20;99.90;;;;;;5112313;28;20028;-69
2023/05/19 05:00:44;;;;;;;11.80;5.78;;;11.40;99.90;;;;;;5112543;28;20035;-70
2023/05/19 05:03:11;;;;;;;10.93;5.55;;;11.50;99.90;;;;;;5112282;28;20444;-70
2023/05/19 05:05:36;;;;;;;7.00;5.18;;;11.60;99.90;;;;;;5111859;28;20038;-71
2023/05/19 05:08:02;;;;;;;7.93;5.22;;;11.80;99.90;;;;;;5111788;28;20387;-70
2023/05/19 05:10:28;;;;;;;10.23;5.20;;;11.90;99.90;;;;;;5111687;28;20039;-70
2023/05/19 05:12:54;;;;;;;8.07;6.22;;;12.00;99.90;;;;;;5112454;28;20031;-70
2023/05/19 05:15:20;;;;;;;12.00;6.35;;;12.00;99.90;;;;;;5112445;28;20024;-69
2023/05/19 05:17:46;;;;;;;9.50;6.20;;;12.10;99.90;;;;;;5113271;28;20039;-70
2023/05/19 05:20:12;;;;;;;11.45;5.85;;;12.20;99.90;;;;;;5116061;28;20020;-69
2023/05/19 05:22:38;;;;;;;9.02;5.72;;;12.20;99.90;;;;;;5115554;28;20426;-69
2023/05/19 05:25:05;;;;;;;8.30;6.35;;;12.30;99.90;;;;;;5115827;28;20058;-70
2023/05/19 05:27:31;;;;;;;8.77;5.80;;;12.50;99.90;;;;;;5115590;28;20023;-69
2023/05/19 05:29:57;;;;;;;8.35;6.32;;;12.70;99.90;;;;;;5115729;28;20030;-70
2023/05/19 05:32:22;;;;;;;10.20;5.95;;;13.00;99.70;;;;;;5115389;28;20460;-70
2023/05/19 05:34:49;;;;;;;11.35;5.72;;;13.70;99.90;;;;;;5115595;28;20511;-70
2023/05/19 05:37:14;;;;;;;11.02;5.45;;;14.60;98.40;;;;;;5115318;28;20059;-68
2023/05/19 05:39:40;;;;;;;6.30;5.05;;;15.40;95.10;;;;;;5113973;28;20066;-69
2023/05/19 05:42:07;;;;;;;8.40;6.03;;;16.00;92.50;;;;;;5115369;28;20135;-69
2023/05/19 05:44:34;;;;;;;8.35;5.80;;;15.90;90.60;;;;;;5114924;28;20051;-69
2023/05/19 05:47:01;;;;;;;8.45;5.70;;;15.80;89.90;;;;;;5115670;28;20019;-69
2023/05/19 05:49:27;;;;;;;9.57;5.82;;;15.60;87.60;;;;;;5114829;28;20107;-70
2023/05/19 05:51:53;;;;;;;11.15;5.68;;;15.40;89.00;;;;;;5114877;28;20118;-69
2023/05/19 05:54:21;;;;;;;7.05;5.63;;;15.30;89.80;;;;;;5115119;28;20039;-72
2023/05/19 05:56:47;;;;;;;7.93;5.35;;;15.10;89.10;;;;;;5114568;28;20079;-69
2023/05/19 05:59:14;;;;;;;8.60;5.68;;;15.00;90.20;;;;;;5115193;28;20452;-70
2023/05/19 06:01:40;;;;;;;8.13;5.97;;;14.90;90.30;;;;;;5114751;28;20023;-70
2023/05/19 06:04:06;;;;;;;6.75;5.15;;;14.80;90.70;;;;;;5115182;28;20063;-69
2023/05/19 06:06:32;;;;;;;7.80;5.22;;;15.10;91.20;;;;;;5114681;28;20116;-70
2023/05/19 06:08:58;;;;;;;8.02;5.45;;;15.40;89.30;;;;;;5114994;28;20030;-69
2023/05/19 06:11:23;;;;;;;9.40;5.55;;;15.40;89.50;;;;;;5114826;28;20048;-70
2023/05/19 06:13:49;;;;;;;10.23;5.05;;;15.40;90.10;;;;;;5114543;28;20032;-69
2023/05/19 06:16:15;;;;;;;8.93;5.22;;;15.40;89.20;;;;;;5114922;28;20023;-69
2023/05/19 06:18:40;;;;;;;8.35;5.75;;;15.70;89.70;;;;;;5114052;28;20056;-70
2023/05/19 06:21:08;;;;;;;6.20;4.72;;;16.50;88.30;;;;;;5114504;28;20573;-70
2023/05/19 06:23:35;;;;;;;9.85;5.47;;;17.60;84.70;;;;;;5114266;28;20031;-70
2023/05/19 06:26:00;;;;;;;7.63;5.30;;;18.50;79.00;;;;;;5113862;28;20020;-70
2023/05/19 06:28:26;;;;;;;7.25;4.65;;;19.10;75.40;;;;;;5114326;28;20111;-69
2023/05/19 06:30:52;;;;;;;6.97;5.13;;;19.90;72.70;;;;;;5114094;28;20032;-69
2023/05/19 06:33:17;;;;;;;6.45;4.97;;;20.40;68.90;;;;;;5114414;28;20039;-69
2023/05/19 06:35:43;;;;;;;7.68;5.07;;;20.50;66.70;;;;;;5114030;28;20043;-69
2023/05/19 06:38:08;;;;;;;8.30;5.00;;;20.30;65.80;;;;;;5113214;28;20030;-69
2023/05/19 06:40:35;;;;;;;8.82;5.05;;;19.90;66.90;;;;;;5114069;28;20088;-69
2023/05/19 06:43:01;;;;;;;10.45;4.88;;;19.50;65.60;;;;;;5114360;28;20349;-69
2023/05/19 06:45:27;;;;;;;7.60;5.63;;;19.20;66.80;;;;;;5114408;28;20051;-69
2023/05/19 06:47:53;;;;;;;7.72;5.50;;;18.90;67.80;;;;;;5113851;28;20020;-69
2023/05/19 06:50:19;;;;;;;6.70;5.57;;;18.50;68.40;;;;;;5114096;28;20043;-69
2023/05/19 06:52:45;;;;;;;8.13;5.53;;;18.00;68.60;;;;;;5113727;28;20035;-71
2023/05/19 06:55:11;;;;;;;8.85;5.78;;;17.70;70.40;;;;;;5113995;28;20084;-70
2023/05/19 06:57:37;;;;;;;7.65;5.32;;;17.40;72.30;;;;;;5113803;28;20027;-70
2023/05/19 07:00:04;;;;;;;8.60;5.32;;;17.10;72.70;;;;;;5113971;28;20020;-71
2023/05/19 07:02:29;;;;;;;8.10;5.70;;;16.90;74.20;;;;;;5113671;28;20027;-69
2023/05/19 07:04:56;;;;;;;9.20;6.45;;;16.70;75.20;;;;;;5113831;28;20468;-69
2023/05/19 07:07:21;;;;;;;10.95;5.88;;;16.50;76.30;;;;;;5114013;28;20114;-70
2023/05/19 07:09:47;;;;;;;10.18;6.25;;;16.30;77.40;;;;;;5113392;28;20051;-70
2023/05/19 07:12:12;;;;;;;17.42;6.20;;;16.20;78.90;;;;;;5113514;28;20024;-69
2023/05/19 07:14:38;;;;;;;8.85;5.88;;;16.10;79.30;;;;;;5113125;28;20489;-69
2023/05/19 07:17:04;;;;;;;8.18;5.57;;;15.90;79.80;;;;;;5112425;28;20020;-69
2023/05/19 07:19:29;;;;;;;8.52;5.95;;;15.80;80.10;;;;;;5113866;28;20027;-69
2023/05/19 07:21:55;;;;;;;9.85;5.78;;;15.80;80.70;;;;;;5113062;28;20039;-69
2023/05/19 07:24:21;;;;;;;9.80;6.32;;;15.70;81.30;;;;;;5113679;28;20032;-69
2023/05/19 07:26:47;;;;;;;7.72;5.30;;;15.70;81.50;;;;;;5113067;28;20027;-69
2023/05/19 07:29:12;;;;;;;7.85;5.47;;;15.60;82.30;;;;;;5113470;28;20116;-69
2023/05/19 07:31:38;;;;;;;8.75;5.28;;;15.50;81.90;;;;;;5112753;28;20031;-69
2023/05/19 07:34:04;;;;;;;7.93;5.78;;;15.40;82.60;;;;;;5113950;28;20027;-69
2023/05/19 07:36:30;;;;;;;7.25;5.10;;;15.50;83.10;;;;;;5113333;28;20055;-69
2023/05/19 07:38:56;;;;;;;8.15;5.20;;;15.50;83.40;;;;;;5112958;28;20030;-69
2023/05/19 07:41:21;;;;;;;9.35;5.10;;;15.60;83.50;;;;;;5112791;28;20106;-69
2023/05/19 07:43:48;;;;;;;6.72;4.70;;;15.90;83.90;;;;;;5112963;28;20385;-69
2023/05/19 07:46:13;;;;;;;6.40;4.93;;;16.60;83.70;;;;;;5113563;28;20048;-69
2023/05/19 07:48:39;;;;;;;6.50;4.65;;;17.30;81.20;;;;;;5112621;28;20085;-69
2023/05/19 07:51:08;;;;;;;6.68;4.93;;;17.90;76.90;;;;;;5113191;28;20063;-69
2023/05/19 07:53:37;;;;;;;7.75;4.60;;;18.20;74.10;;;;;;5113094;28;20085;-75
2023/05/19 07:56:03;;;;;;;6.63;5.15;;;18.30;72.70;;;;;;5113404;28;20039;-69
2023/05/19 07:58:29;;;;;;;6.95;4.68;;;18.40;73.40;;;;;;5113126;28;20081;-68
2023/05/19 08:00:58;;;;;;;9.82;4.60;;;18.60;71.30;;;;;;5112659;28;20036;-68
2023/05/19 08:03:25;;;;;;;10.70;4.60;;;18.50;72.70;;;;;;5112545;28;20085;-69
2023/05/19 08:05:51;;;;;;;6.90;4.75;;;18.40;71.50;;;;;;5112322;28;20028;-69
2023/05/19 08:08:18;;;;;;;10.45;5.07;;;18.30;71.30;;;;;;5112494;28;20027;-69
2023/05/19 08:10:44;;;;;;;7.35;5.40;;;18.00;71.00;;;;;;5112369;28;20098;-69
2023/05/19 08:13:10;;;;;;;7.10;4.85;;;17.80;72.50;;;;;;5112848;28;20087;-69
2023/05/19 08:15:35;;;;;;;14.05;5.65;;;17.70;73.40;;;;;;5112917;28;20118;-69
2023/05/19 08:18:02;;;;;;;7.85;5.32;;;17.70;74.20;;;;;;5112245;28;20113;-69
2023/05/19 08:20:27;;;;;;;7.18;5.10;;;17.70;75.20;;;;;;5112765;28;20375;-69
2023/05/19 08:22:53;;;;;;;7.30;5.28;;;17.70;73.90;;;;;;5112323;28;20031;-71
2023/05/19 08:25:19;;;;;;;9.85;5.85;;;17.60;74.80;;;;;;5112092;28;20449;-70
2023/05/19 08:27:44;;;;;;;7.38;5.65;;;17.60;75.20;;;;;;5112365;28;20473;-70
2023/05/19 08:30:11;;;;;;;7.93;5.28;;;17.60;75.30;;;;;;5112929;28;20110;-70
2023/05/19 08:32:37;;;;;;;12.98;5.95;;;17.30;76.10;;;;;;5112076;28;20517;-70
2023/05/19 08:35:03;;;;;;;8.13;5.43;;;17.30;76.40;;;;;;5112579;28;20032;-70
2023/05/19 08:37:28;;;;;;;9.00;5.47;;;17.30;76.70;;;;;;5112797;28;20032;-70
2023/05/19 08:39:54;;;;;;;7.53;5.22;;;17.30;77.10;;;;;;5112404;28;20058;-70
2023/05/19 08:42:20;;;;;;;8.68;5.90;;;17.30;78.20;;;;;;5112830;28;20024;-70
2023/05/19 08:44:45;;;;;;;9.77;5.63;;;17.20;77.70;;;;;;5112203;28;20043;-70
2023/05/19 08:47:12;;;;;;;7.50;5.50;;;17.10;77.20;;;;;;5112895;28;20019;-68
2023/05/19 08:49:50;;;;;;;7.82;5.22;;;16.90;78.20;;;;;;5112701;28;20106;-69
2023/05/19 08:52:30;;;;;;;9.02;5.97;;;16.90;78.90;;;;;;5113877;28;20035;-68
2023/05/19 08:55:03;;;;;;;7.07;4.97;;;16.80;79.00;;;;;;5116253;28;20024;-69
2023/05/19 08:57:29;;;;;;;7.70;5.65;;;16.80;79.90;;;;;;5116146;28;20107;-68
2023/05/19 08:59:56;;;;;;;8.13;5.53;;;16.70;79.70;;;;;;5115936;28;20031;-70
2023/05/19 09:02:22;;;;;;;9.82;5.80;;;16.80;80.40;;;;;;5116185;28;20447;-69
2023/05/19 09:04:48;;;;;;;8.93;5.70;;;16.80;80.50;;;;;;5115889;28;20106;-68
2023/05/19 09:07:15;;;;;;;6.32;5.15;;;16.90;82.10;;;;;;5115983;28;20119;-70
2023/05/19 09:09:42;;;;;;;6.72;4.60;;;17.10;83.50;;;;;;5115961;28;20024;-71
2023/05/19 09:12:12;;;;;;;7.72;4.85;;;17.10;81.30;;;;;;5116154;28;20069;-69
2023/05/19 09:14:38;;;;;;;7.03;4.87;;;17.20;80.80;;;;;;5116073;28;20028;-70
2023/05/19 09:17:05;;;;;;;6.93;5.20;;;17.30;80.70;;;;;;5115752;28;20779;-70
2023/05/19 09:19:30;;;;;;;6.28;4.70;;;17.30;81.60;;;;;;5115816;28;20026;-70
2023/05/19 09:22:02;;;;;;;7.72;4.90;;;17.40;81.50;;;;;;5115441;28;20361;-70
2023/05/19 09:24:28;;;;;;;9.13;5.05;;;17.60;81.80;;;;;;5115454;28;20447;-70
2023/05/19 09:26:56;;;;;;;8.63;5.50;;;17.70;79.40;;;;;;5114986;28;20024;-70
2023/05/19 09:29:22;;;;;;;6.68;4.88;;;17.60;79.70;;;;;;5112352;28;20028;-70
2023/05/19 09:31:51;;;;;;;5.82;4.30;;;17.80;80.30;;;;;;5113012;28;20097;-71
2023/05/19 09:34:17;;;;;;;8.48;4.63;;;18.00;81.30;;;;;;5111615;28;20507;-70
2023/05/19 09:36:45;;;;;;;5.47;4.25;;;18.20;80.60;;;;;;5114933;28;20032;-75
2023/05/19 09:39:14;;;;;;;7.25;4.50;;;18.40;79.80;;;;;;5112627;28;20076;-70
2023/05/19 09:41:40;;;;;;;7.40;4.20;;;18.50;78.20;;;;;;5114994;28;20027;-70
2023/05/19 09:44:06;;;;;;;5.90;3.92;;;18.30;79.20;;;;;;5114184;28;20020;-71
2023/05/19 09:46:34;;;;;;;7.15;5.05;;;18.40;78.90;;;;;;5114622;28;20043;-70
2023/05/19 09:49:09;;;;;;;8.48;4.85;;;18.50;78.10;;;;;;5114953;28;20023;-69
2023/05/19 09:51:38;;;;;;;11.10;4.90;;;18.40;77.70;;;;;;5115397;28;20470;-69
2023/05/19 09:54:04;;;;;;;8.48;5.03;;;18.50;79.40;;;;;;5114947;28;20038;-71
2023/05/19 09:56:36;;;;;;;6.65;4.95;;;18.70;78.90;;;;;;5115016;28;20019;-69
2023/05/19 09:59:02;;;;;;;7.50;5.10;;;18.80;79.50;;;;;;5114563;28;20452;-70
2023/05/19 10:01:32;;;;;;;6.03;4.93;;;19.00;78.50;;;;;;5115240;28;20027;-70
2023/05/19 10:03:59;;;;;;;5.80;4.25;;;19.00;76.60;;;;;;5113969;28;20464;-70
2023/05/19 10:06:25;;;;;;;7.30;4.70;;;19.20;78.60;;;;;;5093770;28;20024;-70
2023/05/19 10:08:53;;;;;;;10.00;4.63;;;19.10;76.00;;;;;;5093090;28;20028;-70
2023/05/19 10:11:21;;;;;;;7.95;5.15;;;19.20;76.40;;;;;;5094163;28;20460;-70
2023/05/19 10:13:49;;;;;;;6.22;4.40;;;19.10;75.40;;;;;;5093949;28;20468;-70
2023/05/19 10:16:15;;;;;;;9.32;5.18;;;19.20;75.90;;;;;;5094368;28;20036;-69
2023/05/19 10:18:41;;;;;;;6.68;4.75;;;19.10;75.10;;;;;;5094813;28;20022;-70
2023/05/19 10:21:08;;;;;;;6.80;4.95;;;19.00;77.00;;;;;;5093841;28;20391;-70
2023/05/19 10:23:34;;;;;;;10.75;4.57;;;19.10;76.90;;;;;;5093119;28;20376;-70
2023/05/19 10:26:03;;;;;;;6.97;4.72;;;19.10;76.30;;;;;;5093990;28;20024;-70
2023/05/19 10:28:38;;;;;;;6.30;4.30;;;19.20;76.60;;;;;;5094580;28;20488;-70
2023/05/19 10:31:08;;;;;;;6.93;4.53;;;19.10;76.30;;;;;;5093640;28;20385;-70
2023/05/19 10:33:58;;;;;;;7.85;4.15;;;19.30;78.10;;;;;;5101565;28;20023;-70
2023/05/19 10:36:23;;;;;;;8.10;4.80;;;19.10;75.40;;;;;;5114649;28;20080;-70
2023/05/19 10:38:59;;;;;;;7.60;4.10;;;19.10;75.60;;;;;;5112913;28;20118;-70
2023/05/19 10:41:39;;;;;;;5.60;4.43;;;19.20;76.00;;;;;;5097098;28;20024;-70
2023/05/19 10:44:26;;;;;;;5.15;4.15;;;19.30;75.40;;;;;;5114203;28;20048;-70
2023/05/19 10:46:52;;;;;;;5.13;4.22;;;19.30;76.50;;;;;;5113856;28;20039;-70
2023/05/19 10:49:21;;;;;;;5.30;3.88;;;19.40;77.50;;;;;;5113956;28;20024;-70
2023/05/19 10:51:47;;;;;;;5.38;4.03;;;19.40;76.40;;;;;;5112506;28;20062;-70
2023/05/19 10:54:15;;;;;;;5.28;3.85;;;19.50;76.80;;;;;;5114242;28;20082;-69
2023/05/19 10:56:46;;;;;;;4.88;4.20;;;19.60;76.40;;;;;;5114048;28;20055;-70
2023/05/19 10:59:34;;;;;;;4.40;3.90;;;19.50;74.90;;;;;;5112404;28;20072;-69
2023/05/19 11:02:07;;;;;;;5.15;3.72;;;19.30;75.80;;;;;;5113607;28;20032;-69
2023/05/19 11:04:51;;;;;;;4.25;3.85;;;19.30;77.20;;;;;;5114464;28;20027;-69
2023/05/19 11:07:19;;;;;;;4.88;3.80;;;19.30;76.90;;;;;;5113672;28;20484;-69
2023/05/19 11:09:51;;;;;;;5.00;3.83;;;19.40;77.10;;;;;;5113758;28;20027;-69
2023/05/19 11:12:24;;;;;;;4.78;3.50;;;19.40;76.50;;;;;;5114003;28;20464;-69
2023/05/19 11:14:53;;;;;;;8.30;3.50;;;19.40;77.50;;;;;;5112527;28;20044;-74
2023/05/19 11:17:22;;;;;;;4.18;2.70;;;19.50;78.00;;;;;;5113584;28;20031;-69
2023/05/19 11:19:53;;;;;;;4.57;2.65;;;19.60;79.10;;;;;;5113291;28;20468;-70
2023/05/19 11:22:23;;;;;;;4.80;3.03;;;19.70;78.60;;;;;;5113475;28;20160;-70
2023/05/19 11:24:51;;;;;;;6.93;3.43;;;19.80;77.70;;;;;;5113356;28;20369;-70
2023/05/19 11:27:20;;;;;;;4.07;2.88;;;19.90;77.10;;;;;;5113679;28;20040;-70
2023/05/19 11:29:47;;;;;;;5.82;2.83;;;19.90;76.60;;;;;;5113480;28;20028;-69
2023/05/19 11:32:13;;;;;;;3.95;2.60;;;19.80;76.80;;;;;;5112924;28;20023;-70
2023/05/19 11:34:39;;;;;;;7.43;2.88;;;19.80;77.40;;;;;;5113309;28;20043;-70
2023/05/19 11:37:06;;;;;;;3.45;2.83;;;19.70;76.70;;;;;;5112884;28;20030;-70
2023/05/19 11:39:32;;;;;;;5.70;3.28;;;19.60;77.10;;;;;;5113293;28;20055;-69
2023/05/19 11:41:57;;;;;;;3.95;2.88;;;19.60;77.80;;;;;;5112856;28;20036;-69
2023/05/19 11:44:23;;;;;;;6.70;2.97;;;19.50;77.90;;;;;;5113204;28;20042;-69
2023/05/19 11:46:48;;;;;;;4.80;3.00;;;19.40;78.70;;;;;;5113304;28;20024;-69
2023/05/19 11:49:14;;;;;;;4.70;3.30;;;19.30;79.10;;;;;;5112405;28;20035;-69
2023/05/19 11:51:44;;;;;;;4.53;3.40;;;19.30;78.90;;;;;;5113209;28;20502;-69
2023/05/19 11:54:10;;;;;;;4.57;3.30;;;19.30;80.00;;;;;;5112580;28;20038;-69
2023/05/19 11:56:40;;;;;;;4.63;3.42;;;19.30;79.50;;;;;;5112972;28;20486;-69
2023/05/19 11:59:06;;;;;;;8.25;3.10;;;19.30;78.80;;;;;;5112098;28;20100;-69
2023/05/19 12:01:33;;;;;;;4.90;2.85;;;19.30;79.40;;;;;;5113262;28;20031;-69
2023/05/19 12:03:59;;;;;;;4.47;3.67;;;19.30;79.80;;;;;;5111171;28;20119;-70
2023/05/19 12:06:25;;;;;;;6.30;3.58;;;19.20;80.00;;;;;;5112851;28;20107;-69
2023/05/19 12:08:52;;;;;;;3.95;3.05;;;19.30;80.60;;;;;;5112542;28;20024;-69
2023/05/19 12:11:18;;;;;;;3.85;3.13;;;19.30;81.40;;;;;;5112455;28;20030;-69
2023/05/19 12:13:44;;;;;;;4.78;3.10;;;19.30;81.90;;;;;;5112506;28;20035;-69
2023/05/19 12:16:10;;;;;;;4.45;2.60;;;19.40;81.50;;;;;;5112369;28;20024;-69
2023/05/19 12:18:36;;;;;;;3.95;2.65;;;19.30;80.90;;;;;;5112642;28;20035;-69
2023/05/19 12:21:03;;;;;;;8.35;2.95;;;19.30;81.00;;;;;;5112415;28;20055;-69
2023/05/19 12:23:31;;;;;;;3.97;2.53;;;19.30;80.60;;;;;;5111597;28;20031;-70
2023/05/19 12:26:00;;;;;;;5.55;3.00;;;19.30;80.30;;;;;;5112571;28;20084;-70
2023/05/19 12:28:29;;;;;;;2.88;2.58;;;19.30;80.70;;;;;;5116530;28;20023;-70
2023/05/19 12:30:57;;;;;;;3.13;2.30;;;19.30;80.40;;;;;;5116449;28;20038;-71
2023/05/19 12:33:23;;;;;;;3.75;2.33;;;19.30;81.60;;;;;;5116866;28;20038;-70
2023/05/19 12:35:49;;;;;;;3.00;2.70;;;19.30;81.90;;;;;;5116876;28;20035;-69
2023/05/19 12:38:15;;;;;;;3.72;2.55;;;19.20;81.40;;;;;;5116307;28;20015;-69
2023/05/19 12:40:43;;;;;;;3.72;2.60;;;19.20;81.50;;;;;;5116796;28;20464;-70
2023/05/19 12:43:19;;;;;;;3.42;2.50;;;19.00;82.20;;;;;;5116382;28;20031;-70